sensor_id;sensor_type;location;lat;lon;timestamp;P1;durP1;ratioP1;P2;durP2;ratioP2
71503;SDS011;59323;50.874;7.028;2023-11-18T00:00:15;44.67;;;11.70;;
71503;SDS011;59323;50.874;7.028;2023-11-18T00:02:42;52.95;;;12.75;;
71503;SDS011;59323;50.874;7.028;2023-11-18T00:05:09;51.17;;;13.73;;
71503;SDS011;59323;50.874;7.028;2023-11-18T00:07:35;46.87;;;12.83;;
71503;SDS011;59323;50.874;7.028;2023-11-18T00:10:00;50.00;;;13.35;;
71503;SDS011;59323;50.874;7.028;2023-11-18T00:12:26;53.75;;;13.43;;
71503;SDS011;59323;50.874;7.028;2023-11-18T00:14:52;48.37;;;13.47;;
71503;SDS011;59323;50.874;7.028;2023-11-18T00:17:17;59.47;;;13.98;;
71503;SDS011;59323;50.874;7.028;2023-11-18T00:19:45;53.20;;;14.40;;
71503;SDS011;59323;50.874;7.028;2023-11-18T00:22:10;59.10;;;14.18;;
71503;SDS011;59323;50.874;7.028;2023-11-18T00:24:36;54.60;;;14.20;;
71503;SDS011;59323;50.874;7.028;2023-11-18T00:27:03;54.70;;;13.95;;
71503;SDS011;59323;50.874;7.028;2023-11-18T00:29:34;47.80;;;14.45;;
71503;SDS011;59323;50.874;7.028;2023-11-18T00:32:00;56.75;;;13.43;;
71503;SDS011;59323;50.874;7.028;2023-11-18T00:34:27;49.38;;;13.52;;
71503;SDS011;59323;50.874;7.028;2023-11-18T00:36:54;59.20;;;15.20;;
71503;SDS011;59323;50.874;7.028;2023-11-18T00:39:22;57.28;;;13.65;;
71503;SDS011;59323;50.874;7.028;2023-11-18T00:41:48;54.63;;;14.77;;
71503;SDS011;59323;50.874;7.028;2023-11-18T00:44:14;49.33;;;12.97;;
71503;SDS011;59323;50.874;7.028;2023-11-18T00:46:39;56.45;;;15.50;;
71503;SDS011;59323;50.874;7.028;2023-11-18T00:49:05;45.90;;;13.30;;
71503;SDS011;59323;50.874;7.028;2023-11-18T00:51:31;50.27;;;13.33;;
71503;SDS011;59323;50.874;7.028;2023-11-18T00:53:56;56.63;;;13.87;;
71503;SDS011;59323;50.874;7.028;2023-11-18T00:56:22;54.40;;;13.90;;
71503;SDS011;59323;50.874;7.028;2023-11-18T00:58:48;54.30;;;13.93;;
71503;SDS011;59323;50.874;7.028;2023-11-18T01:01:14;53.77;;;13.37;;
71503;SDS011;59323;50.874;7.028;2023-11-18T01:03:45;52.28;;;14.52;;
71503;SDS011;59323;50.874;7.028;2023-11-18T01:06:11;40.83;;;11.95;;
71503;SDS011;59323;50.874;7.028;2023-11-18T01:08:37;50.28;;;14.35;;
71503;SDS011;59323;50.874;7.028;2023-11-18T01:11:02;50.20;;;12.93;;
71503;SDS011;59323;50.874;7.028;2023-11-18T01:13:31;47.00;;;12.98;;
71503;SDS011;59323;50.874;7.028;2023-11-18T01:15:56;49.37;;;13.47;;
71503;SDS011;59323;50.874;7.028;2023-11-18T01:18:22;46.25;;;12.10;;
71503;SDS011;59323;50.874;7.028;2023-11-18T01:20:48;47.73;;;12.53;;
71503;SDS011;59323;50.874;7.028;2023-11-18T01:23:16;46.25;;;13.18;;
71503;SDS011;59323;50.874;7.028;2023-11-18T01:25:42;47.67;;;12.33;;
71503;SDS011;59323;50.874;7.028;2023-11-18T01:28:07;50.10;;;13.48;;
71503;SDS011;59323;50.874;7.028;2023-11-18T01:30:33;44.17;;;11.53;;
71503;SDS011;59323;50.874;7.028;2023-11-18T01:32:59;43.37;;;12.73;;
71503;SDS011;59323;50.874;7.028;2023-11-18T01:35:33;48.70;;;13.27;;
71503;SDS011;59323;50.874;7.028;2023-11-18T01:37:59;43.08;;;12.90;;
71503;SDS011;59323;50.874;7.028;2023-11-18T01:40:24;46.10;;;11.67;;
71503;SDS011;59323;50.874;7.028;2023-11-18T01:42:50;45.03;;;13.40;;
71503;SDS011;59323;50.874;7.028;2023-11-18T01:45:20;47.43;;;12.47;;
71503;SDS011;59323;50.874;7.028;2023-11-18T01:47:46;44.83;;;13.80;;
71503;SDS011;59323;50.874;7.028;2023-11-18T01:50:13;37.17;;;11.83;;
71503;SDS011;59323;50.874;7.028;2023-11-18T01:52:40;39.92;;;12.57;;
71503;SDS011;59323;50.874;7.028;2023-11-18T01:55:06;36.78;;;12.18;;
71503;SDS011;59323;50.874;7.028;2023-11-18T01:57:33;38.30;;;12.38;;
71503;SDS011;59323;50.874;7.028;2023-11-18T01:59:59;36.85;;;11.77;;
71503;SDS011;59323;50.874;7.028;2023-11-18T02:02:32;42.67;;;12.90;;
71503;SDS011;59323;50.874;7.028;2023-11-18T02:04:58;41.95;;;12.68;;
71503;SDS011;59323;50.874;7.028;2023-11-18T02:07:27;38.70;;;12.27;;
71503;SDS011;59323;50.874;7.028;2023-11-18T02:09:55;41.55;;;12.50;;
71503;SDS011;59323;50.874;7.028;2023-11-18T02:12:31;41.87;;;12.57;;
71503;SDS011;59323;50.874;7.028;2023-11-18T02:15:06;40.13;;;11.87;;
71503;SDS011;59323;50.874;7.028;2023-11-18T02:17:35;37.40;;;11.32;;
71503;SDS011;59323;50.874;7.028;2023-11-18T02:20:03;36.95;;;12.57;;
71503;SDS011;59323;50.874;7.028;2023-11-18T02:22:40;36.55;;;11.82;;
71503;SDS011;59323;50.874;7.028;2023-11-18T02:25:09;38.40;;;11.35;;
71503;SDS011;59323;50.874;7.028;2023-11-18T02:30:39;36.88;;;11.55;;
71503;SDS011;59323;50.874;7.028;2023-11-18T02:33:10;33.80;;;11.35;;
71503;SDS011;59323;50.874;7.028;2023-11-18T02:36:05;33.67;;;11.98;;
71503;SDS011;59323;50.874;7.028;2023-11-18T02:38:44;34.88;;;11.05;;
71503;SDS011;59323;50.874;7.028;2023-11-18T02:41:14;31.87;;;9.53;;
71503;SDS011;59323;50.874;7.028;2023-11-18T02:43:44;32.70;;;11.27;;
71503;SDS011;59323;50.874;7.028;2023-11-18T02:46:10;39.10;;;11.63;;
71503;SDS011;59323;50.874;7.028;2023-11-18T02:48:39;38.00;;;11.10;;
71503;SDS011;59323;50.874;7.028;2023-11-18T02:51:06;34.35;;;11.15;;
71503;SDS011;59323;50.874;7.028;2023-11-18T02:53:38;31.33;;;10.63;;
71503;SDS011;59323;50.874;7.028;2023-11-18T02:56:05;38.17;;;11.10;;
71503;SDS011;59323;50.874;7.028;2023-11-18T02:58:32;34.42;;;11.52;;
71503;SDS011;59323;50.874;7.028;2023-11-18T03:01:01;34.28;;;10.48;;
71503;SDS011;59323;50.874;7.028;2023-11-18T03:03:26;31.53;;;10.70;;
71503;SDS011;59323;50.874;7.028;2023-11-18T03:05:55;32.35;;;11.00;;
71503;SDS011;59323;50.874;7.028;2023-11-18T03:08:20;31.90;;;10.83;;
71503;SDS011;59323;50.874;7.028;2023-11-18T03:10:46;32.78;;;10.68;;
71503;SDS011;59323;50.874;7.028;2023-11-18T03:13:11;32.40;;;10.97;;
71503;SDS011;59323;50.874;7.028;2023-11-18T03:15:37;34.80;;;11.63;;
71503;SDS011;59323;50.874;7.028;2023-11-18T03:18:02;36.75;;;11.30;;
71503;SDS011;59323;50.874;7.028;2023-11-18T03:20:30;37.53;;;11.70;;
71503;SDS011;59323;50.874;7.028;2023-11-18T03:22:58;34.70;;;11.67;;
71503;SDS011;59323;50.874;7.028;2023-11-18T03:25:25;36.97;;;12.07;;
71503;SDS011;59323;50.874;7.028;2023-11-18T03:27:50;33.17;;;10.87;;
71503;SDS011;59323;50.874;7.028;2023-11-18T03:30:16;32.83;;;11.35;;
71503;SDS011;59323;50.874;7.028;2023-11-18T03:32:42;33.03;;;11.30;;
71503;SDS011;59323;50.874;7.028;2023-11-18T03:35:07;31.73;;;10.63;;
71503;SDS011;59323;50.874;7.028;2023-11-18T03:37:36;35.97;;;11.67;;
71503;SDS011;59323;50.874;7.028;2023-11-18T03:40:09;34.42;;;10.35;;
71503;SDS011;59323;50.874;7.028;2023-11-18T03:42:39;35.40;;;11.43;;
71503;SDS011;59323;50.874;7.028;2023-11-18T03:45:06;34.10;;;11.63;;
71503;SDS011;59323;50.874;7.028;2023-11-18T03:47:32;34.58;;;11.48;;
71503;SDS011;59323;50.874;7.028;2023-11-18T03:49:59;33.27;;;11.37;;
71503;SDS011;59323;50.874;7.028;2023-11-18T03:52:24;36.03;;;11.38;;
71503;SDS011;59323;50.874;7.028;2023-11-18T03:54:50;37.63;;;12.60;;
71503;SDS011;59323;50.874;7.028;2023-11-18T03:57:16;31.83;;;12.10;;
71503;SDS011;59323;50.874;7.028;2023-11-18T03:59:41;37.03;;;12.00;;
71503;SDS011;59323;50.874;7.028;2023-11-18T04:02:07;39.77;;;12.90;;
71503;SDS011;59323;50.874;7.028;2023-11-18T04:04:33;39.35;;;12.32;;
71503;SDS011;59323;50.874;7.028;2023-11-18T04:06:58;38.33;;;12.25;;
71503;SDS011;59323;50.874;7.028;2023-11-18T04:09:26;38.88;;;13.60;;
71503;SDS011;59323;50.874;7.028;2023-11-18T04:11:54;41.10;;;12.67;;
71503;SDS011;59323;50.874;7.028;2023-11-18T04:14:20;38.88;;;13.10;;
71503;SDS011;59323;50.874;7.028;2023-11-18T04:16:46;40.35;;;13.52;;
71503;SDS011;59323;50.874;7.028;2023-11-18T04:19:12;38.93;;;13.20;;
71503;SDS011;59323;50.874;7.028;2023-11-18T04:21:38;36.40;;;12.68;;
71503;SDS011;59323;50.874;7.028;2023-11-18T04:24:03;34.50;;;12.37;;
71503;SDS011;59323;50.874;7.028;2023-11-18T04:26:33;37.75;;;13.10;;
71503;SDS011;59323;50.874;7.028;2023-11-18T04:28:58;39.08;;;13.00;;
71503;SDS011;59323;50.874;7.028;2023-11-18T04:31:24;39.30;;;13.67;;
71503;SDS011;59323;50.874;7.028;2023-11-18T04:33:52;40.97;;;14.15;;
71503;SDS011;59323;50.874;7.028;2023-11-18T04:36:20;37.67;;;12.73;;
71503;SDS011;59323;50.874;7.028;2023-11-18T04:38:47;38.30;;;12.60;;
71503;SDS011;59323;50.874;7.028;2023-11-18T04:41:13;37.22;;;12.25;;
71503;SDS011;59323;50.874;7.028;2023-11-18T04:43:39;40.67;;;13.97;;
71503;SDS011;59323;50.874;7.028;2023-11-18T04:46:06;37.25;;;12.07;;
71503;SDS011;59323;50.874;7.028;2023-11-18T04:48:32;34.80;;;13.20;;
71503;SDS011;59323;50.874;7.028;2023-11-18T04:50:59;39.47;;;13.00;;
71503;SDS011;59323;50.874;7.028;2023-11-18T04:53:24;37.10;;;12.50;;
71503;SDS011;59323;50.874;7.028;2023-11-18T04:55:50;38.13;;;12.13;;
71503;SDS011;59323;50.874;7.028;2023-11-18T04:58:16;34.93;;;11.83;;
71503;SDS011;59323;50.874;7.028;2023-11-18T05:00:41;36.63;;;11.93;;
71503;SDS011;59323;50.874;7.028;2023-11-18T05:03:07;39.97;;;12.77;;
71503;SDS011;59323;50.874;7.028;2023-11-18T05:05:36;37.97;;;13.00;;
71503;SDS011;59323;50.874;7.028;2023-11-18T05:08:03;38.75;;;11.57;;
71503;SDS011;59323;50.874;7.028;2023-11-18T05:10:31;35.07;;;11.67;;
71503;SDS011;59323;50.874;7.028;2023-11-18T05:12:57;35.38;;;11.93;;
71503;SDS011;59323;50.874;7.028;2023-11-18T05:15:23;39.60;;;12.10;;
71503;SDS011;59323;50.874;7.028;2023-11-18T05:17:51;38.43;;;12.97;;
71503;SDS011;59323;50.874;7.028;2023-11-18T05:20:19;37.25;;;12.35;;
71503;SDS011;59323;50.874;7.028;2023-11-18T05:22:48;33.92;;;11.10;;
71503;SDS011;59323;50.874;7.028;2023-11-18T05:25:14;38.93;;;11.90;;
71503;SDS011;59323;50.874;7.028;2023-11-18T05:27:40;38.65;;;12.45;;
71503;SDS011;59323;50.874;7.028;2023-11-18T05:30:06;37.97;;;12.20;;
71503;SDS011;59323;50.874;7.028;2023-11-18T05:32:35;34.28;;;11.68;;
71503;SDS011;59323;50.874;7.028;2023-11-18T05:35:01;34.73;;;11.37;;
71503;SDS011;59323;50.874;7.028;2023-11-18T05:37:31;32.97;;;11.57;;
71503;SDS011;59323;50.874;7.028;2023-11-18T05:40:03;37.97;;;11.85;;
71503;SDS011;59323;50.874;7.028;2023-11-18T05:42:35;36.63;;;12.53;;
71503;SDS011;59323;50.874;7.028;2023-11-18T05:45:04;36.80;;;12.60;;
71503;SDS011;59323;50.874;7.028;2023-11-18T05:47:32;38.35;;;13.13;;
71503;SDS011;59323;50.874;7.028;2023-11-18T05:49:59;45.40;;;12.90;;
71503;SDS011;59323;50.874;7.028;2023-11-18T05:52:24;40.10;;;13.20;;
71503;SDS011;59323;50.874;7.028;2023-11-18T05:54:50;38.47;;;11.70;;
71503;SDS011;59323;50.874;7.028;2023-11-18T05:57:16;38.03;;;12.30;;
71503;SDS011;59323;50.874;7.028;2023-11-18T05:59:42;39.57;;;12.93;;
71503;SDS011;59323;50.874;7.028;2023-11-18T06:02:07;34.70;;;11.85;;
71503;SDS011;59323;50.874;7.028;2023-11-18T06:04:33;30.40;;;10.55;;
71503;SDS011;59323;50.874;7.028;2023-11-18T06:06:59;34.50;;;11.10;;
71503;SDS011;59323;50.874;7.028;2023-11-18T06:09:27;38.58;;;12.10;;
71503;SDS011;59323;50.874;7.028;2023-11-18T06:11:59;33.43;;;12.00;;
71503;SDS011;59323;50.874;7.028;2023-11-18T06:14:26;34.30;;;11.65;;
71503;SDS011;59323;50.874;7.028;2023-11-18T06:16:51;30.25;;;11.25;;
71503;SDS011;59323;50.874;7.028;2023-11-18T06:19:17;38.40;;;11.63;;
71503;SDS011;59323;50.874;7.028;2023-11-18T06:21:42;33.93;;;11.13;;
71503;SDS011;59323;50.874;7.028;2023-11-18T06:24:08;31.57;;;11.33;;
71503;SDS011;59323;50.874;7.028;2023-11-18T06:26:36;35.70;;;11.43;;
71503;SDS011;59323;50.874;7.028;2023-11-18T06:29:02;32.13;;;11.10;;
71503;SDS011;59323;50.874;7.028;2023-11-18T06:31:29;34.33;;;12.13;;
71503;SDS011;59323;50.874;7.028;2023-11-18T06:33:54;33.60;;;11.05;;
71503;SDS011;59323;50.874;7.028;2023-11-18T06:36:20;33.97;;;11.47;;
71503;SDS011;59323;50.874;7.028;2023-11-18T06:38:46;36.30;;;10.77;;
71503;SDS011;59323;50.874;7.028;2023-11-18T06:41:20;32.97;;;10.52;;
71503;SDS011;59323;50.874;7.028;2023-11-18T06:43:48;32.40;;;11.10;;
71503;SDS011;59323;50.874;7.028;2023-11-18T06:46:20;38.63;;;12.10;;
71503;SDS011;59323;50.874;7.028;2023-11-18T06:48:55;30.25;;;10.98;;
71503;SDS011;59323;50.874;7.028;2023-11-18T06:51:25;30.45;;;10.27;;
71503;SDS011;59323;50.874;7.028;2023-11-18T06:53:57;35.50;;;11.60;;
71503;SDS011;59323;50.874;7.028;2023-11-18T06:56:26;31.77;;;10.53;;
71503;SDS011;59323;50.874;7.028;2023-11-18T07:04:16;31.45;;;10.63;;
71503;SDS011;59323;50.874;7.028;2023-11-18T07:06:42;30.00;;;11.18;;
71503;SDS011;59323;50.874;7.028;2023-11-18T07:09:08;26.73;;;9.67;;
71503;SDS011;59323;50.874;7.028;2023-11-18T07:11:46;27.67;;;10.18;;
71503;SDS011;59323;50.874;7.028;2023-11-18T07:14:12;32.92;;;10.70;;
71503;SDS011;59323;50.874;7.028;2023-11-18T07:16:40;30.90;;;10.20;;
71503;SDS011;59323;50.874;7.028;2023-11-18T07:19:06;30.67;;;10.38;;
71503;SDS011;59323;50.874;7.028;2023-11-18T07:21:34;28.37;;;9.50;;
71503;SDS011;59323;50.874;7.028;2023-11-18T07:24:01;31.95;;;10.43;;
71503;SDS011;59323;50.874;7.028;2023-11-18T07:26:29;27.52;;;8.90;;
71503;SDS011;59323;50.874;7.028;2023-11-18T07:28:55;26.43;;;9.93;;
71503;SDS011;59323;50.874;7.028;2023-11-18T07:31:21;26.70;;;9.80;;
71503;SDS011;59323;50.874;7.028;2023-11-18T07:33:47;29.15;;;10.27;;
71503;SDS011;59323;50.874;7.028;2023-11-18T07:36:15;27.73;;;9.73;;
71503;SDS011;59323;50.874;7.028;2023-11-18T07:38:41;30.37;;;9.77;;
71503;SDS011;59323;50.874;7.028;2023-11-18T07:41:06;27.42;;;9.27;;
71503;SDS011;59323;50.874;7.028;2023-11-18T07:43:34;26.90;;;8.77;;
71503;SDS011;59323;50.874;7.028;2023-11-18T07:46:01;27.83;;;9.27;;
71503;SDS011;59323;50.874;7.028;2023-11-18T07:48:27;26.58;;;9.15;;
71503;SDS011;59323;50.874;7.028;2023-11-18T07:50:53;26.53;;;9.37;;
71503;SDS011;59323;50.874;7.028;2023-11-18T07:53:19;26.63;;;9.23;;
71503;SDS011;59323;50.874;7.028;2023-11-18T07:55:44;27.83;;;9.37;;
71503;SDS011;59323;50.874;7.028;2023-11-18T07:58:10;28.07;;;9.30;;
71503;SDS011;59323;50.874;7.028;2023-11-18T08:00:43;23.65;;;8.40;;
71503;SDS011;59323;50.874;7.028;2023-11-18T08:03:10;27.30;;;9.23;;
71503;SDS011;59323;50.874;7.028;2023-11-18T08:05:37;26.27;;;8.00;;
71503;SDS011;59323;50.874;7.028;2023-11-18T08:08:05;26.65;;;8.55;;
71503;SDS011;59323;50.874;7.028;2023-11-18T08:10:32;25.80;;;8.95;;
71503;SDS011;59323;50.874;7.028;2023-11-18T08:13:03;28.42;;;8.70;;
71503;SDS011;59323;50.874;7.028;2023-11-18T08:15:33;23.73;;;9.00;;
71503;SDS011;59323;50.874;7.028;2023-11-18T08:17:59;21.77;;;7.97;;
71503;SDS011;59323;50.874;7.028;2023-11-18T08:20:28;23.52;;;7.82;;
71503;SDS011;59323;50.874;7.028;2023-11-18T08:22:54;23.40;;;7.90;;
71503;SDS011;59323;50.874;7.028;2023-11-18T08:25:20;24.25;;;8.55;;
71503;SDS011;59323;50.874;7.028;2023-11-18T08:27:47;24.23;;;8.33;;
71503;SDS011;59323;50.874;7.028;2023-11-18T08:30:12;22.75;;;8.50;;
71503;SDS011;59323;50.874;7.028;2023-11-18T08:32:39;24.77;;;8.85;;
71503;SDS011;59323;50.874;7.028;2023-11-18T08:35:06;23.27;;;8.75;;
71503;SDS011;59323;50.874;7.028;2023-11-18T08:37:33;22.87;;;8.40;;
71503;SDS011;59323;50.874;7.028;2023-11-18T08:40:01;22.48;;;7.72;;
71503;SDS011;59323;50.874;7.028;2023-11-18T08:42:28;23.50;;;8.50;;
71503;SDS011;59323;50.874;7.028;2023-11-18T08:44:54;23.13;;;7.82;;
71503;SDS011;59323;50.874;7.028;2023-11-18T08:47:24;21.13;;;8.07;;
71503;SDS011;59323;50.874;7.028;2023-11-18T08:49:50;22.97;;;7.17;;
71503;SDS011;59323;50.874;7.028;2023-11-18T08:52:16;21.48;;;7.50;;
71503;SDS011;59323;50.874;7.028;2023-11-18T08:54:43;20.37;;;7.43;;
71503;SDS011;59323;50.874;7.028;2023-11-18T08:57:29;22.65;;;8.02;;
71503;SDS011;59323;50.874;7.028;2023-11-18T09:00:14;22.75;;;7.75;;
71503;SDS011;59323;50.874;7.028;2023-11-18T09:03:00;19.42;;;7.50;;
71503;SDS011;59323;50.874;7.028;2023-11-18T09:05:27;22.08;;;8.15;;
71503;SDS011;59323;50.874;7.028;2023-11-18T09:08:00;22.40;;;8.23;;
71503;SDS011;59323;50.874;7.028;2023-11-18T09:10:29;20.52;;;7.63;;
71503;SDS011;59323;50.874;7.028;2023-11-18T09:12:57;21.38;;;8.10;;
71503;SDS011;59323;50.874;7.028;2023-11-18T09:15:23;18.43;;;7.43;;
71503;SDS011;59323;50.874;7.028;2023-11-18T09:17:48;21.80;;;7.70;;
71503;SDS011;59323;50.874;7.028;2023-11-18T09:20:17;19.85;;;8.00;;
71503;SDS011;59323;50.874;7.028;2023-11-18T09:22:45;24.33;;;8.57;;
71503;SDS011;59323;50.874;7.028;2023-11-18T09:25:14;21.25;;;8.60;;
71503;SDS011;59323;50.874;7.028;2023-11-18T09:27:41;21.48;;;8.13;;
71503;SDS011;59323;50.874;7.028;2023-11-18T09:30:07;19.92;;;8.07;;
71503;SDS011;59323;50.874;7.028;2023-11-18T09:32:41;17.88;;;7.38;;
71503;SDS011;59323;50.874;7.028;2023-11-18T09:35:08;22.40;;;7.50;;
71503;SDS011;59323;50.874;7.028;2023-11-18T09:37:38;21.48;;;7.70;;
71503;SDS011;59323;50.874;7.028;2023-11-18T09:40:06;24.67;;;7.72;;
71503;SDS011;59323;50.874;7.028;2023-11-18T09:42:38;20.38;;;7.45;;
71503;SDS011;59323;50.874;7.028;2023-11-18T09:45:04;18.80;;;7.70;;
71503;SDS011;59323;50.874;7.028;2023-11-18T09:47:37;19.75;;;7.35;;
71503;SDS011;59323;50.874;7.028;2023-11-18T09:50:11;18.35;;;7.18;;
71503;SDS011;59323;50.874;7.028;2023-11-18T09:52:48;18.00;;;6.05;;
71503;SDS011;59323;50.874;7.028;2023-11-18T09:55:43;18.57;;;6.23;;
71503;SDS011;59323;50.874;7.028;2023-11-18T09:58:15;19.00;;;6.70;;
71503;SDS011;59323;50.874;7.028;2023-11-18T10:00:44;20.60;;;7.03;;
71503;SDS011;59323;50.874;7.028;2023-11-18T10:03:20;17.42;;;6.68;;
71503;SDS011;59323;50.874;7.028;2023-11-18T10:05:54;17.42;;;6.47;;
71503;SDS011;59323;50.874;7.028;2023-11-18T10:08:22;15.30;;;6.23;;
71503;SDS011;59323;50.874;7.028;2023-11-18T10:10:53;20.58;;;7.32;;
71503;SDS011;59323;50.874;7.028;2023-11-18T10:13:31;18.63;;;6.55;;
71503;SDS011;59323;50.874;7.028;2023-11-18T10:15:59;14.43;;;6.28;;
71503;SDS011;59323;50.874;7.028;2023-11-18T10:18:28;16.58;;;6.38;;
71503;SDS011;59323;50.874;7.028;2023-11-18T10:20:54;17.77;;;6.23;;
71503;SDS011;59323;50.874;7.028;2023-11-18T10:23:22;16.05;;;6.32;;
71503;SDS011;59323;50.874;7.028;2023-11-18T10:25:50;13.52;;;5.55;;
71503;SDS011;59323;50.874;7.028;2023-11-18T10:28:21;13.65;;;5.15;;
71503;SDS011;59323;50.874;7.028;2023-11-18T10:30:56;12.88;;;5.68;;
71503;SDS011;59323;50.874;7.028;2023-11-18T10:36:22;13.85;;;5.30;;
71503;SDS011;59323;50.874;7.028;2023-11-18T10:42:00;15.25;;;5.25;;
71503;SDS011;59323;50.874;7.028;2023-11-18T10:44:27;16.17;;;5.72;;
71503;SDS011;59323;50.874;7.028;2023-11-18T11:09:26;13.52;;;5.38;;
71503;SDS011;59323;50.874;7.028;2023-11-18T11:34:18;12.95;;;4.88;;
71503;SDS011;59323;50.874;7.028;2023-11-18T11:36:49;14.02;;;5.18;;
71503;SDS011;59323;50.874;7.028;2023-11-18T11:39:33;10.57;;;4.38;;
71503;SDS011;59323;50.874;7.028;2023-11-18T11:42:03;11.93;;;5.15;;
71503;SDS011;59323;50.874;7.028;2023-11-18T11:44:34;12.27;;;5.00;;
71503;SDS011;59323;50.874;7.028;2023-11-18T11:47:07;14.57;;;5.38;;
71503;SDS011;59323;50.874;7.028;2023-11-18T11:49:38;13.10;;;5.10;;
71503;SDS011;59323;50.874;7.028;2023-11-18T11:52:19;11.32;;;4.70;;
71503;SDS011;59323;50.874;7.028;2023-11-18T11:57:38;10.47;;;4.83;;
71503;SDS011;59323;50.874;7.028;2023-11-18T12:00:04;11.95;;;4.70;;
71503;SDS011;59323;50.874;7.028;2023-11-18T12:02:47;14.68;;;5.43;;
71503;SDS011;59323;50.874;7.028;2023-11-18T12:05:25;11.63;;;4.47;;
71503;SDS011;59323;50.874;7.028;2023-11-18T12:07:55;10.95;;;4.22;;
71503;SDS011;59323;50.874;7.028;2023-11-18T12:10:30;10.97;;;5.37;;
71503;SDS011;59323;50.874;7.028;2023-11-18T12:13:11;11.50;;;4.70;;
71503;SDS011;59323;50.874;7.028;2023-11-18T12:19:25;11.07;;;4.53;;
71503;SDS011;59323;50.874;7.028;2023-11-18T12:21:53;13.55;;;4.47;;
71503;SDS011;59323;50.874;7.028;2023-11-18T12:24:19;13.90;;;4.53;;
71503;SDS011;59323;50.874;7.028;2023-11-18T12:26:47;12.50;;;5.10;;
71503;SDS011;59323;50.874;7.028;2023-11-18T12:29:41;13.55;;;4.97;;
71503;SDS011;59323;50.874;7.028;2023-11-18T12:32:09;12.25;;;5.00;;
71503;SDS011;59323;50.874;7.028;2023-11-18T12:43:09;14.13;;;5.15;;
71503;SDS011;59323;50.874;7.028;2023-11-18T12:48:30;11.32;;;4.68;;
71503;SDS011;59323;50.874;7.028;2023-11-18T12:50:57;10.40;;;4.30;;
71503;SDS011;59323;50.874;7.028;2023-11-18T12:53:24;12.95;;;3.78;;
71503;SDS011;59323;50.874;7.028;2023-11-18T12:55:50;10.05;;;3.80;;
71503;SDS011;59323;50.874;7.028;2023-11-18T12:58:17;12.82;;;5.03;;
71503;SDS011;59323;50.874;7.028;2023-11-18T13:00:43;11.70;;;4.33;;
71503;SDS011;59323;50.874;7.028;2023-11-18T13:03:16;12.68;;;4.65;;
71503;SDS011;59323;50.874;7.028;2023-11-18T13:05:44;12.50;;;4.25;;
71503;SDS011;59323;50.874;7.028;2023-11-18T13:08:13;14.77;;;4.07;;
71503;SDS011;59323;50.874;7.028;2023-11-18T13:10:40;14.55;;;4.43;;
71503;SDS011;59323;50.874;7.028;2023-11-18T13:13:10;12.10;;;3.97;;
71503;SDS011;59323;50.874;7.028;2023-11-18T13:15:47;12.15;;;3.97;;
71503;SDS011;59323;50.874;7.028;2023-11-18T13:18:16;11.85;;;4.22;;
71503;SDS011;59323;50.874;7.028;2023-11-18T13:20:58;10.00;;;3.50;;
71503;SDS011;59323;50.874;7.028;2023-11-18T13:23:27;11.05;;;3.83;;
71503;SDS011;59323;50.874;7.028;2023-11-18T13:25:58;11.15;;;3.70;;
71503;SDS011;59323;50.874;7.028;2023-11-18T13:28:29;12.05;;;3.65;;
71503;SDS011;59323;50.874;7.028;2023-11-18T13:30:54;9.87;;;3.47;;
71503;SDS011;59323;50.874;7.028;2023-11-18T13:33:20;11.33;;;3.80;;
71503;SDS011;59323;50.874;7.028;2023-11-18T13:35:48;8.57;;;3.25;;
71503;SDS011;59323;50.874;7.028;2023-11-18T13:38:16;8.27;;;3.10;;
71503;SDS011;59323;50.874;7.028;2023-11-18T13:40:46;9.30;;;3.42;;
71503;SDS011;59323;50.874;7.028;2023-11-18T13:43:16;9.17;;;3.07;;
71503;SDS011;59323;50.874;7.028;2023-11-18T13:45:42;8.77;;;3.20;;
71503;SDS011;59323;50.874;7.028;2023-11-18T13:48:07;9.07;;;2.57;;
71503;SDS011;59323;50.874;7.028;2023-11-18T13:50:36;8.65;;;2.50;;
71503;SDS011;59323;50.874;7.028;2023-11-18T13:53:10;7.20;;;2.15;;
71503;SDS011;59323;50.874;7.028;2023-11-18T14:05:53;8.00;;;2.45;;
71503;SDS011;59323;50.874;7.028;2023-11-18T14:09:04;9.38;;;2.50;;
71503;SDS011;59323;50.874;7.028;2023-11-18T14:12:25;10.10;;;2.55;;
71503;SDS011;59323;50.874;7.028;2023-11-18T14:40:51;9.52;;;2.60;;
71503;SDS011;59323;50.874;7.028;2023-11-18T14:44:05;8.77;;;2.60;;
71503;SDS011;59323;50.874;7.028;2023-11-18T16:28:05;6.38;;;2.60;;
71503;SDS011;59323;50.874;7.028;2023-11-18T16:30:55;9.07;;;2.60;;
71503;SDS011;59323;50.874;7.028;2023-11-18T16:33:24;7.47;;;2.78;;
71503;SDS011;59323;50.874;7.028;2023-11-18T16:35:52;6.82;;;2.85;;
71503;SDS011;59323;50.874;7.028;2023-11-18T16:38:33;8.10;;;2.57;;
71503;SDS011;59323;50.874;7.028;2023-11-18T16:41:15;6.72;;;2.50;;
71503;SDS011;59323;50.874;7.028;2023-11-18T16:43:59;6.47;;;2.80;;
71503;SDS011;59323;50.874;7.028;2023-11-18T16:46:48;6.25;;;2.30;;
71503;SDS011;59323;50.874;7.028;2023-11-18T16:49:36;6.60;;;2.58;;
71503;SDS011;59323;50.874;7.028;2023-11-18T16:52:02;7.73;;;2.50;;
71503;SDS011;59323;50.874;7.028;2023-11-18T16:55:02;8.07;;;2.53;;
71503;SDS011;59323;50.874;7.028;2023-11-18T16:57:52;6.82;;;2.60;;
71503;SDS011;59323;50.874;7.028;2023-11-18T17:01:09;6.22;;;2.05;;
71503;SDS011;59323;50.874;7.028;2023-11-18T17:03:41;6.07;;;2.25;;
71503;SDS011;59323;50.874;7.028;2023-11-18T17:06:10;8.10;;;2.70;;
71503;SDS011;59323;50.874;7.028;2023-11-18T17:08:46;8.23;;;2.40;;
71503;SDS011;59323;50.874;7.028;2023-11-18T17:11:28;8.00;;;2.30;;
71503;SDS011;59323;50.874;7.028;2023-11-18T17:14:12;5.68;;;2.00;;
71503;SDS011;59323;50.874;7.028;2023-11-18T17:16:50;5.65;;;1.83;;
71503;SDS011;59323;50.874;7.028;2023-11-18T17:19:16;5.40;;;1.90;;
71503;SDS011;59323;50.874;7.028;2023-11-18T17:21:55;4.82;;;1.90;;
